createdAt,value
2018-04-17T00:00:29.147Z,0.00
2018-04-17T00:01:29.132Z,0.00
2018-04-17T00:02:29.113Z,0.00
2018-04-17T00:03:29.096Z,0.00
2018-04-17T00:04:29.077Z,0.00
2018-04-17T00:05:29.073Z,0.00
2018-04-17T00:06:29.061Z,0.00
2018-04-17T00:07:29.035Z,0.00
2018-04-17T00:08:29.026Z,0.00
2018-04-17T00:09:28.997Z,0.00
2018-04-17T00:10:29.000Z,0.00
2018-04-17T00:11:28.987Z,0.00
2018-04-17T00:12:28.956Z,0.00
2018-04-17T00:13:28.944Z,0.00
2018-04-17T00:14:28.928Z,0.00
2018-04-17T00:15:28.920Z,0.00
2018-04-17T00:16:28.905Z,0.00
2018-04-17T00:17:28.879Z,0.00
2018-04-17T00:18:28.869Z,0.00
2018-04-17T00:19:28.864Z,0.00
2018-04-17T00:20:28.853Z,0.00
2018-04-17T00:21:28.825Z,0.00
2018-04-17T00:22:30.697Z,0.00
2018-04-17T00:23:28.787Z,0.00
2018-04-17T00:24:28.787Z,0.00
2018-04-17T00:25:28.758Z,0.00
2018-04-17T00:26:28.748Z,0.00
2018-04-17T00:27:28.733Z,0.00
2018-04-17T00:28:28.750Z,0.00
2018-04-17T00:29:28.697Z,0.00
2018-04-17T00:30:28.674Z,0.00
2018-04-17T00:31:28.671Z,0.00
2018-04-17T00:32:28.652Z,0.00
2018-04-17T00:33:28.636Z,0.00
2018-04-17T00:34:28.620Z,0.00
2018-04-17T00:35:28.605Z,0.00
2018-04-17T00:36:28.589Z,0.00
2018-04-17T00:37:28.572Z,0.00
2018-04-17T00:38:28.549Z,0.00
2018-04-17T00:39:28.543Z,0.00
2018-04-17T00:40:28.521Z,0.00
2018-04-17T00:41:28.504Z,0.00
2018-04-17T00:42:28.495Z,0.00
2018-04-17T00:43:28.479Z,0.00
2018-04-17T00:44:28.464Z,0.00
2018-04-17T00:45:28.447Z,0.00
2018-04-17T00:46:28.425Z,0.00
2018-04-17T00:47:28.419Z,0.00
2018-04-17T00:48:28.403Z,0.00
2018-04-17T00:49:28.387Z,0.00
2018-04-17T00:50:28.371Z,0.00
2018-04-17T00:51:28.362Z,0.00
2018-04-17T00:52:28.340Z,0.00
2018-04-17T00:53:28.324Z,0.00
2018-04-17T00:54:28.309Z,0.00
2018-04-17T00:55:28.292Z,0.00
2018-04-17T00:56:28.286Z,0.00
2018-04-17T00:57:28.256Z,0.00
2018-04-17T00:58:28.240Z,0.00
2018-04-17T00:59:28.232Z,0.00
2018-04-17T01:00:28.219Z,0.00
2018-04-17T01:01:28.209Z,0.00
2018-04-17T01:02:28.186Z,0.00
2018-04-17T01:03:28.163Z,0.00
2018-04-17T01:04:28.160Z,0.00
2018-04-17T01:05:28.138Z,0.00
2018-04-17T01:06:28.119Z,0.00
2018-04-17T01:07:28.106Z,0.00
2018-04-17T01:08:28.090Z,0.00
2018-04-17T01:09:28.080Z,0.00
2018-04-17T01:10:28.058Z,0.00
2018-04-17T01:11:28.047Z,0.00
2018-04-17T01:12:28.020Z,0.00
2018-04-17T01:13:28.010Z,0.00
2018-04-17T01:14:27.993Z,0.00
2018-04-17T01:15:27.983Z,0.00
2018-04-17T01:16:27.964Z,0.00
2018-04-17T01:17:27.948Z,0.00
2018-04-17T01:18:27.932Z,0.00
2018-04-17T01:19:27.912Z,0.00
2018-04-17T01:20:27.897Z,0.00
2018-04-17T01:21:27.887Z,0.00
2018-04-17T01:22:27.877Z,0.00
2018-04-17T01:23:27.855Z,0.00
2018-04-17T01:24:27.839Z,0.00
2018-04-17T01:25:27.820Z,0.00
2018-04-17T01:26:27.800Z,0.00
2018-04-17T01:27:27.800Z,0.00
2018-04-17T01:28:27.782Z,0.00
2018-04-17T01:29:27.763Z,0.00
2018-04-17T01:30:27.751Z,0.00
2018-04-17T01:31:27.724Z,0.00
2018-04-17T01:32:27.720Z,0.00
2018-04-17T01:33:27.699Z,0.00
2018-04-17T01:34:27.685Z,0.00
2018-04-17T01:35:27.663Z,0.00
2018-04-17T01:36:27.659Z,0.00
2018-04-17T01:37:27.631Z,0.00
2018-04-17T01:38:27.628Z,0.00
2018-04-17T01:39:27.605Z,0.00
2018-04-17T01:40:27.586Z,0.00
2018-04-17T01:41:27.589Z,0.00
2018-04-17T01:42:27.560Z,0.00
2018-04-17T01:43:27.541Z,0.00
2018-04-17T01:44:27.531Z,0.00
2018-04-17T01:45:27.509Z,0.00
2018-04-17T01:46:27.486Z,0.00
2018-04-17T01:47:27.474Z,0.00
2018-04-17T01:48:27.464Z,0.00
2018-04-17T01:49:27.448Z,0.00
2018-04-17T01:50:27.441Z,0.00
2018-04-17T01:51:27.420Z,0.00
2018-04-17T01:52:27.400Z,0.00
2018-04-17T01:53:27.395Z,0.00
2018-04-17T01:54:27.410Z,0.00
2018-04-17T01:55:27.354Z,0.00
2018-04-17T01:56:27.332Z,0.00
2018-04-17T01:57:27.316Z,0.00
2018-04-17T01:58:27.307Z,0.00
2018-04-17T01:59:27.289Z,0.00
2018-04-17T02:00:27.276Z,0.00
2018-04-17T02:01:27.254Z,0.00
2018-04-17T02:02:27.251Z,0.00
2018-04-17T02:03:27.238Z,0.00
2018-04-17T02:04:27.219Z,0.00
2018-04-17T02:05:27.193Z,0.00
2018-04-17T02:06:27.193Z,0.00
2018-04-17T02:07:27.171Z,0.00
2018-04-17T02:08:27.160Z,0.00
2018-04-17T02:09:27.140Z,0.00
2018-04-17T02:10:27.117Z,0.00
2018-04-17T02:11:27.117Z,0.00
2018-04-17T02:12:27.095Z,0.00
2018-04-17T02:13:27.082Z,0.00
2018-04-17T02:14:27.056Z,0.00
2018-04-17T02:15:27.039Z,0.00
2018-04-17T02:16:27.049Z,0.00
2018-04-17T02:17:27.012Z,0.00
2018-04-17T02:18:26.988Z,0.00
2018-04-17T02:19:26.980Z,0.00
2018-04-17T02:20:26.973Z,0.00
2018-04-17T02:21:26.956Z,0.00
2018-04-17T02:22:26.927Z,0.00
2018-04-17T02:23:26.911Z,0.00
2018-04-17T02:24:26.901Z,0.00
2018-04-17T02:25:26.895Z,0.00
2018-04-17T02:26:26.866Z,0.00
2018-04-17T02:27:26.850Z,0.00
2018-04-17T02:28:26.832Z,0.00
2018-04-17T02:29:26.820Z,0.00
2018-04-17T02:30:26.809Z,0.00
2018-04-17T02:31:26.785Z,0.00
2018-04-17T02:32:26.789Z,0.00
2018-04-17T02:33:26.757Z,0.00
2018-04-17T02:34:26.733Z,0.00
2018-04-17T02:35:26.727Z,0.00
2018-04-17T02:36:26.718Z,0.00
2018-04-17T02:37:26.693Z,0.00
2018-04-17T02:38:26.673Z,0.00
2018-04-17T02:39:26.664Z,0.00
2018-04-17T02:40:26.651Z,0.00
2018-04-17T02:41:26.619Z,0.00
2018-04-17T02:42:26.606Z,0.00
2018-04-17T02:43:26.589Z,0.00
2018-04-17T02:44:26.582Z,0.00
2018-04-17T02:45:26.567Z,0.00
2018-04-17T02:46:26.609Z,0.00
2018-04-17T02:47:26.534Z,0.00
2018-04-17T02:48:26.512Z,0.00
2018-04-17T02:49:26.495Z,0.00
2018-04-17T02:50:26.476Z,0.00
2018-04-17T02:51:26.461Z,0.00
2018-04-17T02:52:26.447Z,0.00
2018-04-17T02:53:26.428Z,0.00
2018-04-17T02:54:26.413Z,0.00
2018-04-17T02:55:26.391Z,0.00
2018-04-17T02:56:26.383Z,0.00
2018-04-17T02:57:26.373Z,0.00
2018-04-17T02:58:26.346Z,0.00
2018-04-17T02:59:26.333Z,0.00
2018-04-17T03:00:26.323Z,0.00
2018-04-17T03:01:26.304Z,0.00
2018-04-17T03:02:26.278Z,0.00
2018-04-17T03:03:26.265Z,0.00
2018-04-17T03:04:26.246Z,0.00
2018-04-17T03:05:26.240Z,0.00
2018-04-17T03:06:26.208Z,0.00
2018-04-17T03:07:26.198Z,0.00
2018-04-17T03:08:26.176Z,0.00
2018-04-17T03:09:26.153Z,0.00
2018-04-17T03:10:26.143Z,0.00
2018-04-17T03:11:26.133Z,0.00
2018-04-17T03:12:26.120Z,0.00
2018-04-17T03:13:26.092Z,0.00
2018-04-17T03:14:26.092Z,0.00
2018-04-17T03:15:26.066Z,0.00
2018-04-17T03:16:26.051Z,0.00
2018-04-17T03:17:26.034Z,0.00
2018-04-17T03:18:26.025Z,0.00
2018-04-17T03:19:25.999Z,0.00
2018-04-17T03:20:25.976Z,0.00
2018-04-17T03:21:25.968Z,0.00
2018-04-17T03:22:25.958Z,0.00
2018-04-17T03:23:25.938Z,0.00
2018-04-17T03:24:25.919Z,0.00
2018-04-17T03:25:25.894Z,0.00
2018-04-17T03:26:25.871Z,0.00
2018-04-17T03:27:25.871Z,0.00
2018-04-17T03:28:25.855Z,0.00
2018-04-17T03:29:25.847Z,0.00
2018-04-17T03:30:25.813Z,0.00
2018-04-17T03:31:25.803Z,0.00
2018-04-17T03:32:25.784Z,0.00
2018-04-17T03:33:25.759Z,0.00
2018-04-17T03:34:25.749Z,0.00
2018-04-17T03:35:25.736Z,0.00
2018-04-17T03:36:25.717Z,0.00
2018-04-17T03:37:25.697Z,0.00
2018-04-17T03:38:25.697Z,0.00
2018-04-17T03:39:25.666Z,0.00
2018-04-17T03:40:25.652Z,0.00
2018-04-17T03:41:25.629Z,0.00
2018-04-17T03:42:25.620Z,0.00
2018-04-17T03:43:25.595Z,0.00
2018-04-17T03:44:25.600Z,0.00
2018-04-17T03:45:25.577Z,0.00
2018-04-17T03:46:25.541Z,0.00
2018-04-17T03:47:25.532Z,0.00
2018-04-17T03:48:25.528Z,0.00
2018-04-17T03:49:25.496Z,0.00
2018-04-17T03:50:25.486Z,0.00
2018-04-17T03:51:25.464Z,0.00
2018-04-17T03:52:25.438Z,0.00
2018-04-17T03:53:25.426Z,0.00
2018-04-17T03:54:25.421Z,0.00
2018-04-17T03:55:25.400Z,0.00
2018-04-17T03:56:25.376Z,0.00
2018-04-17T03:57:25.371Z,0.00
2018-04-17T03:58:25.366Z,0.00
2018-04-17T03:59:25.352Z,0.00
2018-04-17T04:00:25.313Z,0.00
2018-04-17T04:01:25.301Z,0.00
2018-04-17T04:02:25.288Z,0.00
2018-04-17T04:03:25.259Z,0.00
2018-04-17T04:04:25.251Z,0.00
2018-04-17T04:05:25.225Z,0.00
2018-04-17T04:06:25.218Z,0.00
2018-04-17T04:07:25.195Z,0.00
2018-04-17T04:08:25.183Z,0.00
2018-04-17T04:09:25.157Z,0.00
2018-04-17T04:10:25.174Z,0.00
2018-04-17T04:11:25.138Z,0.00
2018-04-17T04:12:25.116Z,0.00
2018-04-17T04:13:25.103Z,0.00
2018-04-17T04:14:25.082Z,0.00
2018-04-17T04:15:25.061Z,0.00
2018-04-17T04:16:25.049Z,0.00
2018-04-17T04:17:25.029Z,0.00
2018-04-17T04:18:25.007Z,0.00
2018-04-17T04:19:25.000Z,0.00
2018-04-17T04:20:24.973Z,5.63
2018-04-17T04:21:24.960Z,5.63
2018-04-17T04:22:24.931Z,5.63
2018-04-17T04:23:24.921Z,5.63
2018-04-17T04:24:24.909Z,5.63
2018-04-17T04:25:24.889Z,5.63
2018-04-17T04:26:24.872Z,5.63
2018-04-17T04:27:24.882Z,11.25
2018-04-17T04:28:24.835Z,11.25
2018-04-17T04:29:24.819Z,11.25
2018-04-17T04:30:24.822Z,11.25
2018-04-17T04:31:24.790Z,16.88
2018-04-17T04:32:24.777Z,16.88
2018-04-17T04:33:24.746Z,16.88
2018-04-17T04:34:24.736Z,16.88
2018-04-17T04:35:24.718Z,22.50
2018-04-17T04:36:24.701Z,22.50
2018-04-17T04:37:24.685Z,22.50
2018-04-17T04:38:24.659Z,28.13
2018-04-17T04:39:24.649Z,28.13
2018-04-17T04:40:24.638Z,28.13
2018-04-17T04:41:24.621Z,33.75
2018-04-17T04:42:24.592Z,33.75
2018-04-17T04:43:24.581Z,33.75
2018-04-17T04:44:24.568Z,39.38
2018-04-17T04:45:24.546Z,39.38
2018-04-17T04:46:24.518Z,39.38
2018-04-17T04:47:24.511Z,45.00
2018-04-17T04:48:24.492Z,45.00
2018-04-17T04:49:24.474Z,45.00
2018-04-17T04:50:24.463Z,50.63
2018-04-17T04:51:24.450Z,50.63
2018-04-17T04:52:24.431Z,56.25
2018-04-17T04:53:24.409Z,56.25
2018-04-17T04:54:24.489Z,56.25
2018-04-17T04:55:24.384Z,61.88
2018-04-17T04:56:24.359Z,61.88
2018-04-17T04:57:24.352Z,61.88
2018-04-17T04:58:24.336Z,67.50
2018-04-17T04:59:24.309Z,67.50
2018-04-17T05:00:24.291Z,73.13
2018-04-17T05:01:24.291Z,73.13
2018-04-17T05:02:24.259Z,73.13
2018-04-17T05:03:24.244Z,78.75
2018-04-17T05:04:24.231Z,78.75
2018-04-17T05:05:24.205Z,78.75
2018-04-17T05:06:24.196Z,84.38
2018-04-17T05:07:24.173Z,84.38
2018-04-17T05:08:24.153Z,84.38
2018-04-17T05:09:24.144Z,90.00
2018-04-17T05:10:24.124Z,90.00
2018-04-17T05:11:24.107Z,90.00
2018-04-17T05:12:24.102Z,95.63
2018-04-17T05:13:24.074Z,95.63
2018-04-17T05:14:24.054Z,101.25
2018-04-17T05:15:24.036Z,101.25
2018-04-17T05:16:24.017Z,101.25
2018-04-17T05:17:24.006Z,106.88
2018-04-17T05:18:24.037Z,112.50
2018-04-17T05:19:23.970Z,112.50
2018-04-17T05:20:23.954Z,112.50
2018-04-17T05:21:23.939Z,118.13
2018-04-17T05:22:23.923Z,118.13
2018-04-17T05:23:23.926Z,123.75
2018-04-17T05:24:23.897Z,123.75
2018-04-17T05:25:23.878Z,123.75
2018-04-17T05:26:23.849Z,129.38
2018-04-17T05:27:23.868Z,129.38
2018-04-17T05:28:23.821Z,129.38
2018-04-17T05:29:23.811Z,135.00
2018-04-17T05:30:23.804Z,135.00
2018-04-17T05:31:23.769Z,140.63
2018-04-17T05:32:23.756Z,140.63
2018-04-17T05:33:23.734Z,140.63
2018-04-17T05:34:23.727Z,146.25
2018-04-17T05:35:23.710Z,146.25
2018-04-17T05:36:23.679Z,146.25
2018-04-17T05:37:23.663Z,151.88
2018-04-17T05:38:23.654Z,151.88
2018-04-17T05:39:23.644Z,151.88
2018-04-17T05:40:23.621Z,157.50
2018-04-17T05:41:23.606Z,157.50
2018-04-17T05:42:23.580Z,157.50
2018-04-17T05:43:23.574Z,163.13
2018-04-17T05:44:23.563Z,163.13
2018-04-17T05:45:23.532Z,163.13
2018-04-17T05:46:23.545Z,163.13
2018-04-17T05:47:23.500Z,163.13
2018-04-17T05:48:23.487Z,163.13
2018-04-17T05:49:23.471Z,163.13
2018-04-17T05:50:23.455Z,168.75
2018-04-17T05:51:23.445Z,168.75
2018-04-17T05:52:23.423Z,168.75
2018-04-17T05:53:23.409Z,174.38
2018-04-17T05:54:23.395Z,174.38
2018-04-17T05:55:23.368Z,174.38
2018-04-17T05:56:23.349Z,174.38
2018-04-17T05:57:23.336Z,180.00
2018-04-17T05:58:23.313Z,180.00
2018-04-17T05:59:23.305Z,180.00
2018-04-17T06:00:23.285Z,180.00
2018-04-17T06:01:23.269Z,185.63
2018-04-17T06:02:23.256Z,185.63
2018-04-17T06:03:23.237Z,185.63
2018-04-17T06:04:23.224Z,185.63
2018-04-17T06:05:23.211Z,185.63
2018-04-17T06:06:23.192Z,191.25
2018-04-17T06:07:23.178Z,191.25
2018-04-17T06:08:23.159Z,191.25
2018-04-17T06:09:23.139Z,191.25
2018-04-17T06:10:23.132Z,196.88
2018-04-17T06:11:23.113Z,196.88
2018-04-17T06:12:23.105Z,196.88
2018-04-17T06:13:23.078Z,196.88
2018-04-17T06:14:23.056Z,202.50
2018-04-17T06:15:23.053Z,202.50
2018-04-17T06:16:23.030Z,202.50
2018-04-17T06:17:23.019Z,202.50
2018-04-17T06:18:22.999Z,208.13
2018-04-17T06:19:22.979Z,208.13
2018-04-17T06:20:22.961Z,213.75
2018-04-17T06:21:22.951Z,213.75
2018-04-17T06:22:22.941Z,213.75
2018-04-17T06:23:22.962Z,213.75
2018-04-17T06:24:22.904Z,219.38
2018-04-17T06:25:22.889Z,213.75
2018-04-17T06:26:22.872Z,219.38
2018-04-17T06:27:22.863Z,219.38
2018-04-17T06:28:22.851Z,219.38
2018-04-17T06:29:22.822Z,225.00
2018-04-17T06:30:22.813Z,225.00
2018-04-17T06:31:22.800Z,225.00
2018-04-17T06:32:22.795Z,230.63
2018-04-17T06:33:22.766Z,225.00
2018-04-17T06:34:22.747Z,219.38
2018-04-17T06:35:22.730Z,230.63
2018-04-17T06:36:22.712Z,230.63
2018-04-17T06:37:22.698Z,230.63
2018-04-17T06:38:22.683Z,230.63
2018-04-17T06:39:22.672Z,236.25
2018-04-17T06:40:22.650Z,236.25
2018-04-17T06:41:22.642Z,236.25
2018-04-17T06:42:22.627Z,241.88
2018-04-17T06:43:22.608Z,241.88
2018-04-17T06:44:22.596Z,241.88
2018-04-17T06:45:22.580Z,241.88
2018-04-17T06:46:22.560Z,241.88
2018-04-17T06:47:22.590Z,241.88
2018-04-17T06:48:22.552Z,241.88
2018-04-17T06:49:22.513Z,241.88
2018-04-17T06:50:22.507Z,241.88
2018-04-17T06:51:22.490Z,241.88
2018-04-17T06:52:22.472Z,241.88
2018-04-17T06:53:22.459Z,241.88
2018-04-17T06:54:22.447Z,247.50
2018-04-17T06:55:22.433Z,247.50
2018-04-17T06:56:22.424Z,247.50
2018-04-17T06:57:22.404Z,247.50
2018-04-17T06:58:22.382Z,247.50
2018-04-17T06:59:22.373Z,247.50
2018-04-17T07:00:22.358Z,253.13
2018-04-17T07:01:22.351Z,258.75
2018-04-17T07:02:22.325Z,258.75
2018-04-17T07:03:22.324Z,258.75
2018-04-17T07:04:22.296Z,258.75
2018-04-17T07:05:22.299Z,258.75
2018-04-17T07:06:22.277Z,258.75
2018-04-17T07:07:22.259Z,258.75
2018-04-17T07:08:22.246Z,258.75
2018-04-17T07:09:22.220Z,264.38
2018-04-17T07:10:22.207Z,264.38
2018-04-17T07:11:22.217Z,264.38
2018-04-17T07:12:22.193Z,264.38
2018-04-17T07:13:22.180Z,264.38
2018-04-17T07:14:22.164Z,264.38
2018-04-17T07:15:22.149Z,264.38
2018-04-17T07:16:22.151Z,270.00
2018-04-17T07:17:22.113Z,270.00
2018-04-17T07:18:22.110Z,270.00
2018-04-17T07:19:22.085Z,275.63
2018-04-17T07:20:22.072Z,275.63
2018-04-17T07:21:22.059Z,275.63
2018-04-17T07:22:22.040Z,275.63
2018-04-17T07:23:22.027Z,281.25
2018-04-17T07:24:22.017Z,281.25
2018-04-17T07:25:22.013Z,281.25
2018-04-17T07:26:21.992Z,292.50
2018-04-17T07:27:21.982Z,286.88
2018-04-17T07:28:21.971Z,286.88
2018-04-17T07:29:21.981Z,286.88
2018-04-17T07:30:21.929Z,292.50
2018-04-17T07:31:21.917Z,292.50
2018-04-17T07:32:21.912Z,292.50
2018-04-17T07:33:21.887Z,292.50
2018-04-17T07:34:21.884Z,292.50
2018-04-17T07:35:21.858Z,292.50
2018-04-17T07:36:21.849Z,292.50
2018-04-17T07:37:21.829Z,292.50
2018-04-17T07:38:21.823Z,292.50
2018-04-17T07:39:21.820Z,292.50
2018-04-17T07:40:21.829Z,292.50
2018-04-17T07:41:21.794Z,292.50
2018-04-17T07:42:21.771Z,292.50
2018-04-17T07:43:21.763Z,292.50
2018-04-17T07:44:21.752Z,292.50
2018-04-17T07:45:21.732Z,298.13
2018-04-17T07:46:21.711Z,298.13
2018-04-17T07:47:21.709Z,303.75
2018-04-17T07:48:21.681Z,303.75
2018-04-17T07:49:21.676Z,303.75
2018-04-17T07:50:21.659Z,303.75
2018-04-17T07:51:21.640Z,303.75
2018-04-17T07:52:21.634Z,303.75
2018-04-17T07:53:21.624Z,303.75
2018-04-17T07:54:21.608Z,298.13
2018-04-17T07:55:21.591Z,303.75
2018-04-17T07:56:21.575Z,298.13
2018-04-17T07:57:21.565Z,303.75
2018-04-17T07:58:21.562Z,303.75
2018-04-17T07:59:21.536Z,303.75
2018-04-17T08:00:21.520Z,303.75
2018-04-17T08:01:21.530Z,303.75
2018-04-17T08:02:21.507Z,303.75
2018-04-17T08:03:21.492Z,303.75
2018-04-17T08:04:21.496Z,303.75
2018-04-17T08:05:21.462Z,303.75
2018-04-17T08:06:21.453Z,309.38
2018-04-17T08:07:21.434Z,309.38
2018-04-17T08:08:21.427Z,309.38
2018-04-17T08:09:21.402Z,309.38
2018-04-17T08:10:21.395Z,309.38
2018-04-17T08:11:21.383Z,315.00
2018-04-17T08:12:21.376Z,315.00
2018-04-17T08:13:21.363Z,315.00
2018-04-17T08:14:21.347Z,315.00
2018-04-17T08:15:21.341Z,320.63
2018-04-17T08:16:21.321Z,320.63
2018-04-17T08:17:21.311Z,331.88
2018-04-17T08:18:21.300Z,326.25
2018-04-17T08:19:21.288Z,331.88
2018-04-17T08:20:21.267Z,337.50
2018-04-17T08:21:21.267Z,337.50
2018-04-17T08:22:21.242Z,343.13
2018-04-17T08:23:21.242Z,343.13
2018-04-17T08:24:21.229Z,348.75
2018-04-17T08:25:21.222Z,348.75
2018-04-17T08:26:21.203Z,354.38
2018-04-17T08:27:21.200Z,360.00
2018-04-17T08:28:21.184Z,360.00
2018-04-17T08:29:21.158Z,365.63
2018-04-17T08:30:21.152Z,371.25
2018-04-17T08:31:21.145Z,371.25
2018-04-17T08:32:21.123Z,376.88
2018-04-17T08:33:21.120Z,382.50
2018-04-17T08:34:21.101Z,388.13
2018-04-17T08:35:21.088Z,393.75
2018-04-17T08:36:21.074Z,399.38
2018-04-17T08:37:21.063Z,506.25
2018-04-17T08:38:21.053Z,579.38
2018-04-17T08:39:21.040Z,545.63
2018-04-17T08:40:21.040Z,556.88
2018-04-17T08:41:21.021Z,624.38
2018-04-17T08:42:21.023Z,984.38
2018-04-17T08:43:21.007Z,1434.38
2018-04-17T08:44:20.992Z,1485.00
2018-04-17T08:45:20.977Z,1659.38
2018-04-17T08:46:20.970Z,2610.00
2018-04-17T08:47:20.957Z,2947.50
2018-04-17T08:48:20.955Z,3076.88
2018-04-17T08:49:20.938Z,3268.13
2018-04-17T08:50:20.933Z,3476.25
2018-04-17T08:51:20.925Z,3420.00
2018-04-17T08:52:20.924Z,3386.25
2018-04-17T08:53:20.906Z,3633.75
2018-04-17T08:54:20.900Z,4168.13
2018-04-17T08:55:20.900Z,4449.38
2018-04-17T08:56:20.890Z,4348.13
2018-04-17T08:57:20.887Z,4404.38
2018-04-17T08:58:20.881Z,4708.13
2018-04-17T08:59:20.895Z,4500.00
2018-04-17T09:00:20.873Z,4173.75
2018-04-17T09:01:20.871Z,4201.88
2018-04-17T09:02:20.871Z,4438.13
2018-04-17T09:03:20.877Z,4494.38
2018-04-17T09:04:20.862Z,4280.63
2018-04-17T09:05:20.862Z,4325.63
2018-04-17T09:06:20.865Z,4286.25
2018-04-17T09:07:20.858Z,3948.75
2018-04-17T09:08:20.855Z,3611.25
2018-04-17T09:09:20.871Z,3515.63
2018-04-17T09:10:20.855Z,3341.25
2018-04-17T09:11:20.858Z,3335.63
2018-04-17T09:12:20.852Z,3211.88
2018-04-17T09:13:20.861Z,3138.75
2018-04-17T09:14:20.853Z,2880.00
2018-04-17T09:15:20.852Z,2131.88
2018-04-17T09:16:20.853Z,1867.50
2018-04-17T09:17:20.855Z,2587.50
2018-04-17T09:18:20.862Z,2806.88
2018-04-17T09:19:20.868Z,2655.00
2018-04-17T09:20:20.855Z,2497.50
2018-04-17T09:21:20.862Z,1963.13
2018-04-17T09:22:20.862Z,1631.25
2018-04-17T09:23:20.865Z,2160.00
2018-04-17T09:24:20.858Z,2278.13
2018-04-17T09:25:20.865Z,2317.50
2018-04-17T09:26:20.859Z,1856.25
2018-04-17T09:27:20.871Z,1828.13
2018-04-17T09:28:20.865Z,2238.75
2018-04-17T09:29:20.905Z,2216.25
2018-04-17T09:30:20.859Z,2283.75
2018-04-17T09:31:20.862Z,2311.88
2018-04-17T09:32:20.871Z,2193.75
2018-04-17T09:33:20.865Z,2120.63
2018-04-17T09:34:20.872Z,2182.50
2018-04-17T09:35:20.883Z,2238.75
2018-04-17T09:36:20.868Z,2227.50
2018-04-17T09:37:20.875Z,2131.88
2018-04-17T09:38:20.875Z,2160.00
2018-04-17T09:39:20.875Z,2176.88
2018-04-17T09:40:20.875Z,2255.63
2018-04-17T09:41:20.878Z,2323.13
2018-04-17T09:42:20.908Z,2328.75
2018-04-17T09:43:20.888Z,2396.25
2018-04-17T09:44:20.884Z,2334.38
2018-04-17T09:45:20.887Z,1698.75
2018-04-17T09:46:20.894Z,1366.88
2018-04-17T09:47:20.891Z,1648.13
2018-04-17T09:48:20.898Z,1828.13
2018-04-17T09:49:20.900Z,1372.50
2018-04-17T09:50:20.897Z,1383.75
2018-04-17T09:51:20.906Z,1878.75
2018-04-17T09:52:20.905Z,2047.50
2018-04-17T09:53:20.923Z,1951.88
2018-04-17T09:54:20.924Z,1434.38
2018-04-17T09:55:20.920Z,1029.38
2018-04-17T09:56:20.914Z,770.63
2018-04-17T09:57:20.919Z,731.25
2018-04-17T09:58:20.926Z,911.25
2018-04-17T09:59:20.928Z,1080.00
2018-04-17T10:00:20.923Z,1507.50
2018-04-17T10:01:20.929Z,2610.00
2018-04-17T10:02:20.929Z,2891.25
2018-04-17T10:03:20.938Z,3065.63
2018-04-17T10:04:20.932Z,3093.75
2018-04-17T10:05:20.932Z,2908.13
2018-04-17T10:06:20.939Z,2711.25
2018-04-17T10:07:20.945Z,2587.50
2018-04-17T10:08:20.937Z,2491.88
2018-04-17T10:09:20.942Z,2216.25
2018-04-17T10:10:20.946Z,1406.25
2018-04-17T10:11:20.942Z,855.00
2018-04-17T10:12:20.939Z,1215.00
2018-04-17T10:13:20.938Z,2255.63
2018-04-17T10:14:20.948Z,2520.00
2018-04-17T10:15:20.942Z,2587.50
2018-04-17T10:16:20.944Z,2610.00
2018-04-17T10:17:20.960Z,2570.63
2018-04-17T10:18:20.942Z,2120.63
2018-04-17T10:19:20.948Z,1338.75
2018-04-17T10:20:20.945Z,1220.63
2018-04-17T10:21:20.948Z,1451.25
2018-04-17T10:22:20.951Z,1642.50
2018-04-17T10:23:20.952Z,2255.63
2018-04-17T10:24:20.957Z,2632.50
2018-04-17T10:25:20.954Z,2643.75
2018-04-17T10:26:20.958Z,2660.63
2018-04-17T10:27:20.964Z,2677.50
2018-04-17T10:28:20.967Z,2671.88
2018-04-17T10:29:20.964Z,2666.25
2018-04-17T10:30:21.023Z,2655.00
2018-04-17T10:31:20.984Z,2671.88
2018-04-17T10:32:20.988Z,2666.25
2018-04-17T10:33:20.980Z,2671.88
2018-04-17T10:34:20.992Z,2671.88
2018-04-17T10:35:20.990Z,2671.88
2018-04-17T10:36:20.996Z,2638.13
2018-04-17T10:37:20.996Z,2626.88
2018-04-17T10:38:21.002Z,2604.38
2018-04-17T10:39:21.003Z,2604.38
2018-04-17T10:40:21.010Z,2610.00
2018-04-17T10:41:21.016Z,2570.63
2018-04-17T10:42:21.019Z,2576.25
2018-04-17T10:43:21.023Z,2536.88
2018-04-17T10:44:21.026Z,2497.50
2018-04-17T10:45:21.036Z,2469.38
2018-04-17T10:46:21.046Z,2401.88
2018-04-17T10:47:21.045Z,2373.75
2018-04-17T10:48:21.052Z,2340.00
2018-04-17T10:49:21.059Z,2328.75
2018-04-17T10:50:21.068Z,2300.63
2018-04-17T10:51:21.068Z,2278.13
2018-04-17T10:52:21.074Z,2266.88
2018-04-17T10:53:21.084Z,2272.50
2018-04-17T10:54:21.087Z,2238.75
2018-04-17T10:55:21.093Z,2227.50
2018-04-17T10:56:21.100Z,2165.63
2018-04-17T10:57:21.110Z,2137.50
2018-04-17T10:58:21.122Z,2126.25
2018-04-17T10:59:21.119Z,2109.38
2018-04-17T11:00:21.128Z,2058.75
2018-04-17T11:01:21.135Z,2025.00
2018-04-17T11:02:21.157Z,1980.00
2018-04-17T11:03:21.174Z,1940.63
2018-04-17T11:04:21.170Z,1906.88
2018-04-17T11:05:21.166Z,1878.75
2018-04-17T11:06:21.167Z,1850.63
2018-04-17T11:07:21.180Z,1822.50
2018-04-17T11:08:21.186Z,1800.00
2018-04-17T11:09:21.192Z,1760.63
2018-04-17T11:10:21.267Z,1755.00
2018-04-17T11:11:21.218Z,1715.63
2018-04-17T11:12:21.221Z,1698.75
2018-04-17T11:13:21.223Z,1687.50
2018-04-17T11:14:21.231Z,1676.25
2018-04-17T11:15:21.234Z,1653.75
2018-04-17T11:16:21.241Z,1653.75
2018-04-17T11:17:21.251Z,1659.38
2018-04-17T11:18:21.260Z,1642.50
2018-04-17T11:19:21.264Z,1631.25
2018-04-17T11:20:21.273Z,1665.00
2018-04-17T11:21:21.281Z,1721.25
2018-04-17T11:22:21.293Z,1766.25
2018-04-17T11:23:21.295Z,1833.75
2018-04-17T11:24:21.309Z,2700.00
2018-04-17T11:25:21.319Z,6401.25
2018-04-17T11:26:21.321Z,6828.75
2018-04-17T11:27:21.327Z,5377.50
2018-04-17T11:28:21.336Z,5225.63
2018-04-17T11:29:21.346Z,5130.00
2018-04-17T11:30:21.359Z,4995.00
2018-04-17T11:31:21.362Z,4995.00
2018-04-17T11:32:21.372Z,5107.50
2018-04-17T11:33:21.400Z,4950.00
2018-04-17T11:34:21.426Z,4893.75
2018-04-17T11:35:21.399Z,4770.00
2018-04-17T11:36:21.401Z,4713.75
2018-04-17T11:37:21.405Z,4511.25
2018-04-17T11:38:21.456Z,4826.25
2018-04-17T11:39:21.423Z,4747.50
2018-04-17T11:40:21.433Z,4691.25
2018-04-17T11:41:21.437Z,4921.88
2018-04-17T11:42:21.447Z,4978.13
2018-04-17T11:43:21.452Z,5023.13
2018-04-17T11:44:21.462Z,4820.63
2018-04-17T11:45:21.469Z,4663.13
2018-04-17T11:46:21.478Z,4601.25
2018-04-17T11:47:21.485Z,4674.38
2018-04-17T11:48:21.490Z,4730.63
2018-04-17T11:49:21.507Z,4837.50
2018-04-17T11:50:21.506Z,4584.38
2018-04-17T11:51:21.516Z,4623.75
2018-04-17T11:52:21.533Z,4505.63
2018-04-17T11:53:21.539Z,4443.75
2018-04-17T11:54:21.545Z,4550.63
2018-04-17T11:55:21.558Z,4500.00
2018-04-17T11:56:21.558Z,4623.75
2018-04-17T11:57:21.570Z,4725.00
2018-04-17T11:58:21.575Z,4713.75
2018-04-17T11:59:21.584Z,4640.63
2018-04-17T12:00:21.596Z,4680.00
2018-04-17T12:01:21.598Z,4680.00
2018-04-17T12:02:21.609Z,4770.00
2018-04-17T12:03:21.610Z,4618.13
2018-04-17T12:04:21.617Z,4561.88
2018-04-17T12:05:21.629Z,4494.38
2018-04-17T12:06:21.633Z,4370.63
2018-04-17T12:07:21.640Z,4353.75
2018-04-17T12:08:21.645Z,4449.38
2018-04-17T12:09:21.656Z,4511.25
2018-04-17T12:10:21.662Z,4584.38
2018-04-17T12:11:21.672Z,4584.38
2018-04-17T12:12:21.683Z,4606.88
2018-04-17T12:13:21.684Z,4393.13
2018-04-17T12:14:21.691Z,4027.50
2018-04-17T12:15:21.701Z,3971.25
2018-04-17T12:16:21.704Z,4370.63
2018-04-17T12:17:21.715Z,4567.50
2018-04-17T12:18:21.722Z,4584.38
2018-04-17T12:19:21.728Z,4606.88
2018-04-17T12:20:21.795Z,4623.75
2018-04-17T12:21:21.754Z,4511.25
2018-04-17T12:22:21.747Z,4500.00
2018-04-17T12:23:21.755Z,4550.63
2018-04-17T12:24:21.773Z,4533.75
2018-04-17T12:25:21.773Z,4595.63
2018-04-17T12:26:21.779Z,4466.25
2018-04-17T12:27:21.789Z,4410.00
2018-04-17T12:28:21.802Z,4348.13
2018-04-17T12:29:21.806Z,4466.25
2018-04-17T12:30:21.805Z,4516.88
2018-04-17T12:31:21.821Z,4404.38
2018-04-17T12:32:21.824Z,4381.88
2018-04-17T12:33:21.828Z,4533.75
2018-04-17T12:34:21.838Z,4494.38
2018-04-17T12:35:21.847Z,4477.50
2018-04-17T12:36:21.857Z,4550.63
2018-04-17T12:37:21.866Z,4438.13
2018-04-17T12:38:21.888Z,4342.50
2018-04-17T12:39:21.878Z,4561.88